sensor_id;sensor_type;location;lat;lon;timestamp;pressure;altitude;pressure_sealevel;temperature;humidity
49585;BME280;35491;49.142;9.210;2023-04-22T00:00:08;99214.94;;;13.06;69.67
49585;BME280;35491;49.142;9.210;2023-04-22T00:01:09;99216.59;;;13.07;69.34
49585;BME280;35491;49.142;9.210;2023-04-22T00:02:14;99216.25;;;13.10;69.18
49585;BME280;35491;49.142;9.210;2023-04-22T00:03:16;99219.75;;;13.10;69.17
49585;BME280;35491;49.142;9.210;2023-04-22T00:04:21;99215.69;;;13.15;68.87
49585;BME280;35491;49.142;9.210;2023-04-22T00:05:22;99216.16;;;13.18;68.61
49585;BME280;35491;49.142;9.210;2023-04-22T00:06:26;99219.50;;;13.20;68.46
49585;BME280;35491;49.142;9.210;2023-04-22T00:07:27;99219.13;;;13.23;68.66
49585;BME280;35491;49.142;9.210;2023-04-22T00:08:31;99215.81;;;13.21;68.66
49585;BME280;35491;49.142;9.210;2023-04-22T00:09:35;99223.91;;;13.13;69.41
49585;BME280;35491;49.142;9.210;2023-04-22T00:10:39;99222.69;;;13.01;70.03
49585;BME280;35491;49.142;9.210;2023-04-22T00:11:40;99225.06;;;12.95;70.46
49585;BME280;35491;49.142;9.210;2023-04-22T00:12:43;99222.38;;;12.95;70.34
49585;BME280;35491;49.142;9.210;2023-04-22T00:13:45;99227.06;;;13.02;70.13
49585;BME280;35491;49.142;9.210;2023-04-22T00:14:48;99220.69;;;13.03;70.52
49585;BME280;35491;49.142;9.210;2023-04-22T00:15:49;99214.25;;;13.04;70.55
49585;BME280;35491;49.142;9.210;2023-04-22T00:16:53;99220.94;;;13.08;69.91
49585;BME280;35491;49.142;9.210;2023-04-22T00:17:54;99222.63;;;13.09;70.03
49585;BME280;35491;49.142;9.210;2023-04-22T00:18:58;99216.41;;;13.08;70.20
49585;BME280;35491;49.142;9.210;2023-04-22T00:19:59;99212.91;;;13.08;70.26
49585;BME280;35491;49.142;9.210;2023-04-22T00:21:05;99223.72;;;13.00;71.03
49585;BME280;35491;49.142;9.210;2023-04-22T00:22:07;99221.31;;;12.82;72.04
49585;BME280;35491;49.142;9.210;2023-04-22T00:23:10;99224.06;;;12.73;73.42
49585;BME280;35491;49.142;9.210;2023-04-22T00:24:12;99219.91;;;12.71;73.67
49585;BME280;35491;49.142;9.210;2023-04-22T00:25:18;99226.22;;;12.78;72.53
49585;BME280;35491;49.142;9.210;2023-04-22T00:26:20;99219.31;;;12.84;72.20
49585;BME280;35491;49.142;9.210;2023-04-22T00:27:23;99216.28;;;12.87;72.21
49585;BME280;35491;49.142;9.210;2023-04-22T00:28:25;99214.28;;;12.80;73.30
49585;BME280;35491;49.142;9.210;2023-04-22T00:29:29;99220.84;;;12.78;73.13
49585;BME280;35491;49.142;9.210;2023-04-22T00:30:30;99216.34;;;12.78;73.06
49585;BME280;35491;49.142;9.210;2023-04-22T00:31:33;99213.94;;;12.84;72.40
49585;BME280;35491;49.142;9.210;2023-04-22T00:32:35;99219.31;;;12.84;72.82
49585;BME280;35491;49.142;9.210;2023-04-22T00:33:38;99211.81;;;12.79;73.56
49585;BME280;35491;49.142;9.210;2023-04-22T00:34:40;99217.50;;;12.76;74.02
49585;BME280;35491;49.142;9.210;2023-04-22T00:35:43;99216.22;;;12.72;74.30
49585;BME280;35491;49.142;9.210;2023-04-22T00:36:46;99207.84;;;12.67;74.36
49585;BME280;35491;49.142;9.210;2023-04-22T00:37:51;99221.31;;;12.58;74.54
49585;BME280;35491;49.142;9.210;2023-04-22T00:38:52;99213.00;;;12.53;74.35
49585;BME280;35491;49.142;9.210;2023-04-22T00:39:56;99213.66;;;12.55;73.83
49585;BME280;35491;49.142;9.210;2023-04-22T00:41:00;99211.94;;;12.62;73.16
49585;BME280;35491;49.142;9.210;2023-04-22T00:42:05;99210.91;;;12.63;73.36
49585;BME280;35491;49.142;9.210;2023-04-22T00:43:06;99212.28;;;12.59;73.33
49585;BME280;35491;49.142;9.210;2023-04-22T00:44:10;99211.44;;;12.59;73.53
49585;BME280;35491;49.142;9.210;2023-04-22T00:45:14;99206.25;;;12.57;74.11
49585;BME280;35491;49.142;9.210;2023-04-22T00:46:17;99210.97;;;12.55;73.70
49585;BME280;35491;49.142;9.210;2023-04-22T00:47:19;99202.63;;;12.50;74.35
49585;BME280;35491;49.142;9.210;2023-04-22T00:48:26;99205.00;;;12.45;74.28
49585;BME280;35491;49.142;9.210;2023-04-22T00:49:27;99206.69;;;12.46;73.73
49585;BME280;35491;49.142;9.210;2023-04-22T00:50:31;99209.00;;;12.49;73.35
49585;BME280;35491;49.142;9.210;2023-04-22T00:51:32;99205.50;;;12.48;73.63
49585;BME280;35491;49.142;9.210;2023-04-22T00:52:35;99203.28;;;12.52;73.43
49585;BME280;35491;49.142;9.210;2023-04-22T00:53:37;99198.88;;;12.59;72.71
49585;BME280;35491;49.142;9.210;2023-04-22T00:54:40;99209.44;;;12.61;73.09
49585;BME280;35491;49.142;9.210;2023-04-22T00:55:41;99206.56;;;12.62;72.54
49585;BME280;35491;49.142;9.210;2023-04-22T00:56:48;99202.69;;;12.65;72.54
49585;BME280;35491;49.142;9.210;2023-04-22T00:57:49;99206.56;;;12.62;73.22
49585;BME280;35491;49.142;9.210;2023-04-22T00:58:54;99210.59;;;12.58;72.75
49585;BME280;35491;49.142;9.210;2023-04-22T00:59:56;99209.47;;;12.53;73.35
49585;BME280;35491;49.142;9.210;2023-04-22T01:01:00;99203.16;;;12.45;73.65
49585;BME280;35491;49.142;9.210;2023-04-22T01:02:01;99200.94;;;12.49;73.89
49585;BME280;35491;49.142;9.210;2023-04-22T01:03:06;99217.50;;;12.53;73.65
49585;BME280;35491;49.142;9.210;2023-04-22T01:04:07;99212.16;;;12.53;73.90
49585;BME280;35491;49.142;9.210;2023-04-22T01:05:13;99215.00;;;12.51;73.80
49585;BME280;35491;49.142;9.210;2023-04-22T01:06:15;99210.00;;;12.48;74.30
49585;BME280;35491;49.142;9.210;2023-04-22T01:07:19;99218.09;;;12.40;75.30
49585;BME280;35491;49.142;9.210;2023-04-22T01:08:21;99218.16;;;12.31;75.52
49585;BME280;35491;49.142;9.210;2023-04-22T01:09:26;99212.16;;;12.21;76.25
49585;BME280;35491;49.142;9.210;2023-04-22T01:10:28;99218.25;;;12.15;76.94
49585;BME280;35491;49.142;9.210;2023-04-22T01:11:32;99207.72;;;12.13;76.71
49585;BME280;35491;49.142;9.210;2023-04-22T01:12:36;99207.53;;;12.15;76.10
49585;BME280;35491;49.142;9.210;2023-04-22T01:13:40;99206.16;;;12.19;76.13
49585;BME280;35491;49.142;9.210;2023-04-22T01:14:41;99203.31;;;12.21;75.87
49585;BME280;35491;49.142;9.210;2023-04-22T01:15:45;99205.50;;;12.17;75.87
49585;BME280;35491;49.142;9.210;2023-04-22T01:16:46;99207.03;;;12.11;76.38
49585;BME280;35491;49.142;9.210;2023-04-22T01:17:50;99211.94;;;12.08;76.52
49585;BME280;35491;49.142;9.210;2023-04-22T01:18:52;99203.88;;;12.08;76.20
49585;BME280;35491;49.142;9.210;2023-04-22T01:19:56;99213.75;;;12.07;76.37
49585;BME280;35491;49.142;9.210;2023-04-22T01:20:58;99204.50;;;12.18;75.94
49585;BME280;35491;49.142;9.210;2023-04-22T01:22:02;99205.47;;;12.25;74.98
49585;BME280;35491;49.142;9.210;2023-04-22T01:23:03;99209.28;;;12.31;75.00
49585;BME280;35491;49.142;9.210;2023-04-22T01:24:14;99213.09;;;12.37;74.60
49585;BME280;35491;49.142;9.210;2023-04-22T01:25:15;99204.69;;;12.40;74.12
49585;BME280;35491;49.142;9.210;2023-04-22T01:26:19;99210.72;;;12.42;74.18
49585;BME280;35491;49.142;9.210;2023-04-22T01:27:20;99215.59;;;12.38;74.83
49585;BME280;35491;49.142;9.210;2023-04-22T01:28:24;99209.09;;;12.32;74.92
49585;BME280;35491;49.142;9.210;2023-04-22T01:29:25;99210.09;;;12.31;75.36
49585;BME280;35491;49.142;9.210;2023-04-22T01:30:29;99215.81;;;12.28;74.92
49585;BME280;35491;49.142;9.210;2023-04-22T01:31:30;99215.50;;;12.23;75.38
49585;BME280;35491;49.142;9.210;2023-04-22T01:32:35;99213.03;;;12.22;75.40
49585;BME280;35491;49.142;9.210;2023-04-22T01:33:36;99221.06;;;12.22;75.49
49585;BME280;35491;49.142;9.210;2023-04-22T01:34:40;99216.88;;;12.19;75.79
49585;BME280;35491;49.142;9.210;2023-04-22T01:35:41;99213.84;;;12.22;75.79
49585;BME280;35491;49.142;9.210;2023-04-22T01:36:45;99213.13;;;12.28;75.10
49585;BME280;35491;49.142;9.210;2023-04-22T01:37:46;99215.13;;;12.35;74.69
49585;BME280;35491;49.142;9.210;2023-04-22T01:38:50;99214.75;;;12.38;74.30
49585;BME280;35491;49.142;9.210;2023-04-22T01:39:54;99211.91;;;12.39;74.45
49585;BME280;35491;49.142;9.210;2023-04-22T01:40:58;99215.88;;;12.43;74.11
49585;BME280;35491;49.142;9.210;2023-04-22T01:42:00;99210.38;;;12.45;74.09
49585;BME280;35491;49.142;9.210;2023-04-22T01:43:04;99201.00;;;12.41;74.53
49585;BME280;35491;49.142;9.210;2023-04-22T01:44:06;99210.06;;;12.40;74.44
49585;BME280;35491;49.142;9.210;2023-04-22T01:45:10;99215.41;;;12.40;74.64
49585;BME280;35491;49.142;9.210;2023-04-22T01:46:15;99214.41;;;12.41;74.01
49585;BME280;35491;49.142;9.210;2023-04-22T01:47:18;99210.72;;;12.42;74.15
49585;BME280;35491;49.142;9.210;2023-04-22T01:48:20;99207.03;;;12.43;74.10
49585;BME280;35491;49.142;9.210;2023-04-22T01:49:23;99213.22;;;12.43;74.35
49585;BME280;35491;49.142;9.210;2023-04-22T01:50:24;99214.06;;;12.44;74.07
49585;BME280;35491;49.142;9.210;2023-04-22T01:51:28;99208.50;;;12.45;74.00
49585;BME280;35491;49.142;9.210;2023-04-22T01:52:29;99208.31;;;12.47;74.07
49585;BME280;35491;49.142;9.210;2023-04-22T01:53:34;99211.66;;;12.49;74.05
49585;BME280;35491;49.142;9.210;2023-04-22T01:54:35;99210.66;;;12.50;73.96
49585;BME280;35491;49.142;9.210;2023-04-22T01:55:42;99207.16;;;12.50;73.67
49585;BME280;35491;49.142;9.210;2023-04-22T01:56:47;99205.31;;;12.50;73.62
49585;BME280;35491;49.142;9.210;2023-04-22T01:57:51;99206.69;;;12.46;73.87
49585;BME280;35491;49.142;9.210;2023-04-22T01:58:52;99205.66;;;12.47;74.14
49585;BME280;35491;49.142;9.210;2023-04-22T01:59:56;99206.31;;;12.49;73.86
49585;BME280;35491;49.142;9.210;2023-04-22T02:00:58;99212.53;;;12.50;73.89
49585;BME280;35491;49.142;9.210;2023-04-22T02:02:01;99215.00;;;12.51;73.89
49585;BME280;35491;49.142;9.210;2023-04-22T02:03:03;99222.03;;;12.52;73.72
49585;BME280;35491;49.142;9.210;2023-04-22T02:04:06;99212.16;;;12.53;73.80
49585;BME280;35491;49.142;9.210;2023-04-22T02:05:08;99223.72;;;12.53;73.52
49585;BME280;35491;49.142;9.210;2023-04-22T02:06:12;99211.50;;;12.51;73.61
49585;BME280;35491;49.142;9.210;2023-04-22T02:07:13;99208.84;;;12.51;73.77
49585;BME280;35491;49.142;9.210;2023-04-22T02:08:17;99221.09;;;12.45;74.29
49585;BME280;35491;49.142;9.210;2023-04-22T02:09:18;99214.06;;;12.44;74.45
49585;BME280;35491;49.142;9.210;2023-04-22T02:10:22;99223.47;;;12.40;74.47
49585;BME280;35491;49.142;9.210;2023-04-22T02:11:26;99227.00;;;12.40;74.37
49585;BME280;35491;49.142;9.210;2023-04-22T02:12:30;99220.13;;;12.38;74.46
49585;BME280;35491;49.142;9.210;2023-04-22T02:13:34;99221.78;;;12.39;74.47
49585;BME280;35491;49.142;9.210;2023-04-22T02:14:38;99218.09;;;12.40;74.21
49585;BME280;35491;49.142;9.210;2023-04-22T02:15:39;99218.09;;;12.40;74.34
49585;BME280;35491;49.142;9.210;2023-04-22T02:16:43;99222.97;;;12.36;74.46
49585;BME280;35491;49.142;9.210;2023-04-22T02:17:44;99225.84;;;12.35;74.59
49585;BME280;35491;49.142;9.210;2023-04-22T02:18:48;99219.47;;;12.36;74.62
49585;BME280;35491;49.142;9.210;2023-04-22T02:19:50;99221.97;;;12.37;74.35
49585;BME280;35491;49.142;9.210;2023-04-22T02:20:53;99224.84;;;12.36;74.47
49585;BME280;35491;49.142;9.210;2023-04-22T02:21:54;99225.84;;;12.35;74.87
49585;BME280;35491;49.142;9.210;2023-04-22T02:22:58;99231.03;;;12.36;74.59
49585;BME280;35491;49.142;9.210;2023-04-22T02:23:59;99231.03;;;12.36;74.52
49585;BME280;35491;49.142;9.210;2023-04-22T02:25:04;99231.88;;;12.37;74.50
49585;BME280;35491;49.142;9.210;2023-04-22T02:26:05;99226.31;;;12.38;74.18
49585;BME280;35491;49.142;9.210;2023-04-22T02:27:12;99234.56;;;12.37;74.14
49585;BME280;35491;49.142;9.210;2023-04-22T02:28:14;99236.03;;;12.39;74.03
49585;BME280;35491;49.142;9.210;2023-04-22T02:29:17;99231.34;;;12.41;74.18
49585;BME280;35491;49.142;9.210;2023-04-22T02:30:20;99223.31;;;12.41;74.00
49585;BME280;35491;49.142;9.210;2023-04-22T02:31:24;99228.47;;;12.43;73.68
49585;BME280;35491;49.142;9.210;2023-04-22T02:32:25;99231.16;;;12.43;73.77
49585;BME280;35491;49.142;9.210;2023-04-22T02:33:28;99231.16;;;12.43;73.61
49585;BME280;35491;49.142;9.210;2023-04-22T02:34:30;99238.19;;;12.44;73.57
49585;BME280;35491;49.142;9.210;2023-04-22T02:35:34;99237.00;;;12.46;73.70
49585;BME280;35491;49.142;9.210;2023-04-22T02:36:35;99235.97;;;12.47;73.63
49585;BME280;35491;49.142;9.210;2023-04-22T02:38:44;99241.88;;;12.43;74.31
49585;BME280;35491;49.142;9.210;2023-04-22T02:39:53;99240.59;;;12.30;74.92
49585;BME280;35491;49.142;9.210;2023-04-22T02:40:54;99241.31;;;12.24;75.41
49585;BME280;35491;49.142;9.210;2023-04-22T02:41:58;99248.69;;;12.22;75.76
49585;BME280;35491;49.142;9.210;2023-04-22T02:43:02;99239.97;;;12.20;75.60
49585;BME280;35491;49.142;9.210;2023-04-22T02:44:06;99238.31;;;12.19;75.43
49585;BME280;35491;49.142;9.210;2023-04-22T02:45:07;99240.97;;;12.19;75.47
49585;BME280;35491;49.142;9.210;2023-04-22T02:46:11;99239.81;;;12.22;75.26
49585;BME280;35491;49.142;9.210;2023-04-22T02:47:12;99242.50;;;12.22;75.16
49585;BME280;35491;49.142;9.210;2023-04-22T02:48:16;99236.66;;;12.18;75.33
49585;BME280;35491;49.142;9.210;2023-04-22T02:49:18;99239.50;;;12.16;75.71
49585;BME280;35491;49.142;9.210;2023-04-22T02:50:22;99238.66;;;12.16;75.60
49585;BME280;35491;49.142;9.210;2023-04-22T02:51:23;99241.69;;;12.13;75.95
49585;BME280;35491;49.142;9.210;2023-04-22T02:52:27;99247.38;;;12.10;76.34
49585;BME280;35491;49.142;9.210;2023-04-22T02:53:29;99245.41;;;12.04;76.28
49585;BME280;35491;49.142;9.210;2023-04-22T02:54:33;99245.59;;;12.02;76.50
49585;BME280;35491;49.142;9.210;2023-04-22T02:55:38;99248.44;;;12.00;76.48
49585;BME280;35491;49.142;9.210;2023-04-22T02:56:42;99242.56;;;12.05;76.08
49585;BME280;35491;49.142;9.210;2023-04-22T02:57:43;99236.19;;;12.06;75.78
49585;BME280;35491;49.142;9.210;2023-04-22T02:58:50;99241.06;;;12.02;76.33
49585;BME280;35491;49.142;9.210;2023-04-22T03:00:00;99241.44;;;11.99;76.33
49585;BME280;35491;49.142;9.210;2023-04-22T03:01:04;99232.72;;;11.97;76.71
49585;BME280;35491;49.142;9.210;2023-04-22T03:02:11;99234.22;;;12.00;76.40
49585;BME280;35491;49.142;9.210;2023-04-22T03:03:15;99232.69;;;12.06;75.72
49585;BME280;35491;49.142;9.210;2023-04-22T03:04:16;99227.00;;;12.09;75.66
49585;BME280;35491;49.142;9.210;2023-04-22T03:05:21;99235.66;;;12.11;75.67
49585;BME280;35491;49.142;9.210;2023-04-22T03:07:30;99237.00;;;12.15;75.68
49585;BME280;35491;49.142;9.210;2023-04-22T03:08:31;99241.16;;;12.17;75.29
49585;BME280;35491;49.142;9.210;2023-04-22T03:09:35;99239.34;;;12.18;75.31
49585;BME280;35491;49.142;9.210;2023-04-22T03:10:38;99242.00;;;12.18;75.18
49585;BME280;35491;49.142;9.210;2023-04-22T03:11:42;99239.34;;;12.18;75.51
49585;BME280;35491;49.142;9.210;2023-04-22T03:12:43;99244.69;;;12.18;75.57
49585;BME280;35491;49.142;9.210;2023-04-22T03:13:50;99239.34;;;12.18;75.66
49585;BME280;35491;49.142;9.210;2023-04-22T03:14:51;99243.66;;;12.19;75.54
49585;BME280;35491;49.142;9.210;2023-04-22T03:15:55;99245.69;;;12.17;75.41
49585;BME280;35491;49.142;9.210;2023-04-22T03:17:03;99243.38;;;12.14;75.71
49585;BME280;35491;49.142;9.210;2023-04-22T03:18:07;99243.19;;;12.15;75.45
49585;BME280;35491;49.142;9.210;2023-04-22T03:19:10;99242.69;;;12.12;75.56
49585;BME280;35491;49.142;9.210;2023-04-22T03:20:14;99242.03;;;12.10;75.57
49585;BME280;35491;49.142;9.210;2023-04-22T03:21:16;99241.88;;;12.11;75.37
49585;BME280;35491;49.142;9.210;2023-04-22T03:22:19;99243.56;;;12.12;75.05
49585;BME280;35491;49.142;9.210;2023-04-22T03:23:20;99241.69;;;12.13;75.09
49585;BME280;35491;49.142;9.210;2023-04-22T03:24:24;99234.50;;;12.13;74.86
49585;BME280;35491;49.142;9.210;2023-04-22T03:25:25;99232.66;;;12.14;75.34
49585;BME280;35491;49.142;9.210;2023-04-22T03:26:29;99241.69;;;12.13;74.85
49585;BME280;35491;49.142;9.210;2023-04-22T03:27:30;99232.84;;;12.12;75.10
49585;BME280;35491;49.142;9.210;2023-04-22T03:28:34;99245.56;;;12.10;75.35
49585;BME280;35491;49.142;9.210;2023-04-22T03:29:38;99241.53;;;12.06;75.81
49585;BME280;35491;49.142;9.210;2023-04-22T03:30:42;99248.75;;;12.06;75.30
49585;BME280;35491;49.142;9.210;2023-04-22T03:31:43;99243.41;;;12.06;75.28
49585;BME280;35491;49.142;9.210;2023-04-22T03:32:46;99241.72;;;12.05;75.01
49585;BME280;35491;49.142;9.210;2023-04-22T03:33:48;99242.72;;;12.04;75.39
49585;BME280;35491;49.142;9.210;2023-04-22T03:34:52;99247.44;;;12.01;75.16
49585;BME280;35491;49.142;9.210;2023-04-22T03:35:53;99247.44;;;12.01;75.46
49585;BME280;35491;49.142;9.210;2023-04-22T03:36:57;99243.06;;;12.00;75.08
49585;BME280;35491;49.142;9.210;2023-04-22T03:38:01;99246.78;;;11.99;75.08
49585;BME280;35491;49.142;9.210;2023-04-22T03:39:03;99245.75;;;12.00;75.38
49585;BME280;35491;49.142;9.210;2023-04-22T03:40:08;99248.63;;;11.99;75.14
49585;BME280;35491;49.142;9.210;2023-04-22T03:41:09;99260.19;;;11.99;75.32
49585;BME280;35491;49.142;9.210;2023-04-22T03:42:13;99249.47;;;11.99;75.09
49585;BME280;35491;49.142;9.210;2023-04-22T03:43:14;99246.13;;;11.97;75.35
49585;BME280;35491;49.142;9.210;2023-04-22T03:44:19;99250.59;;;11.97;75.27
49585;BME280;35491;49.142;9.210;2023-04-22T03:45:23;99248.91;;;11.96;75.26
49585;BME280;35491;49.142;9.210;2023-04-22T03:46:27;99244.75;;;11.93;75.07
49585;BME280;35491;49.142;9.210;2023-04-22T03:47:28;99249.81;;;11.88;75.57
49585;BME280;35491;49.142;9.210;2023-04-22T03:48:31;99249.63;;;11.90;75.24
49585;BME280;35491;49.142;9.210;2023-04-22T03:49:35;99251.63;;;11.88;75.25
49585;BME280;35491;49.142;9.210;2023-04-22T03:50:38;99247.13;;;11.88;75.23
49585;BME280;35491;49.142;9.210;2023-04-22T03:51:40;99246.13;;;11.89;75.09
49585;BME280;35491;49.142;9.210;2023-04-22T03:52:44;99241.94;;;11.86;75.47
49585;BME280;35491;49.142;9.210;2023-04-22T03:53:45;99241.44;;;11.83;75.58
49585;BME280;35491;49.142;9.210;2023-04-22T03:54:49;99239.94;;;11.80;75.86
49585;BME280;35491;49.142;9.210;2023-04-22T03:55:50;99234.78;;;11.79;76.04
49585;BME280;35491;49.142;9.210;2023-04-22T03:56:53;99233.63;;;11.73;76.47
49585;BME280;35491;49.142;9.210;2023-04-22T03:57:55;99231.47;;;11.68;76.48
49585;BME280;35491;49.142;9.210;2023-04-22T03:58:58;99230.47;;;11.61;77.18
49585;BME280;35491;49.142;9.210;2023-04-22T03:59:59;99228.66;;;11.53;77.36
49585;BME280;35491;49.142;9.210;2023-04-22T04:01:06;99230.66;;;11.51;77.72
49585;BME280;35491;49.142;9.210;2023-04-22T04:02:07;99231.66;;;11.50;77.73
49585;BME280;35491;49.142;9.210;2023-04-22T04:03:11;99227.50;;;11.48;78.23
49585;BME280;35491;49.142;9.210;2023-04-22T04:04:12;99235.34;;;11.49;77.77
49585;BME280;35491;49.142;9.210;2023-04-22T04:05:16;99236.84;;;11.52;77.37
49585;BME280;35491;49.142;9.210;2023-04-22T04:06:17;99232.81;;;11.56;76.95
49585;BME280;35491;49.142;9.210;2023-04-22T04:07:21;99246.19;;;11.56;77.08
49585;BME280;35491;49.142;9.210;2023-04-22T04:08:22;99248.53;;;11.59;76.85
49585;BME280;35491;49.142;9.210;2023-04-22T04:09:26;99243.19;;;11.59;76.82
49585;BME280;35491;49.142;9.210;2023-04-22T04:10:27;99250.88;;;11.54;77.25
49585;BME280;35491;49.142;9.210;2023-04-22T04:11:31;99249.88;;;11.55;77.18
49585;BME280;35491;49.142;9.210;2023-04-22T04:12:32;99252.22;;;11.58;76.77
49585;BME280;35491;49.142;9.210;2023-04-22T04:13:36;99251.38;;;11.58;77.24
49585;BME280;35491;49.142;9.210;2023-04-22T04:14:37;99247.22;;;11.55;77.17
49585;BME280;35491;49.142;9.210;2023-04-22T04:15:40;99241.53;;;11.58;76.67
49585;BME280;35491;49.142;9.210;2023-04-22T04:16:45;99244.53;;;11.55;77.14
49585;BME280;35491;49.142;9.210;2023-04-22T04:17:48;99234.50;;;11.49;77.46
49585;BME280;35491;49.142;9.210;2023-04-22T04:18:50;99238.19;;;11.48;77.10
49585;BME280;35491;49.142;9.210;2023-04-22T04:19:54;99235.53;;;11.48;76.96
49585;BME280;35491;49.142;9.210;2023-04-22T04:20:55;99229.34;;;11.47;76.97
49585;BME280;35491;49.142;9.210;2023-04-22T04:21:59;99237.19;;;11.49;76.98
49585;BME280;35491;49.142;9.210;2023-04-22T04:23:00;99237.00;;;11.50;76.76
49585;BME280;35491;49.142;9.210;2023-04-22T04:24:04;99229.97;;;11.49;76.98
49585;BME280;35491;49.142;9.210;2023-04-22T04:25:05;99235.19;;;11.51;76.67
49585;BME280;35491;49.142;9.210;2023-04-22T04:26:09;99237.88;;;11.51;76.77
49585;BME280;35491;49.142;9.210;2023-04-22T04:27:11;99233.31;;;11.51;76.66
49585;BME280;35491;49.142;9.210;2023-04-22T04:28:15;99234.19;;;11.52;76.42
49585;BME280;35491;49.142;9.210;2023-04-22T04:29:18;99237.50;;;11.54;76.43
49585;BME280;35491;49.142;9.210;2023-04-22T04:30:24;99234.19;;;11.52;76.34
49585;BME280;35491;49.142;9.210;2023-04-22T04:31:25;99230.47;;;11.53;76.25
49585;BME280;35491;49.142;9.210;2023-04-22T04:32:32;99229.47;;;11.54;76.59
49585;BME280;35491;49.142;9.210;2023-04-22T04:33:33;99231.50;;;11.52;76.34
49585;BME280;35491;49.142;9.210;2023-04-22T04:34:37;99231.00;;;11.48;76.50
49585;BME280;35491;49.142;9.210;2023-04-22T04:35:38;99233.03;;;11.46;76.63
49585;BME280;35491;49.142;9.210;2023-04-22T04:36:43;99235.84;;;11.45;76.97
49585;BME280;35491;49.142;9.210;2023-04-22T04:37:46;99228.00;;;11.43;76.65
49585;BME280;35491;49.142;9.210;2023-04-22T04:38:51;99234.88;;;11.37;77.39
49585;BME280;35491;49.142;9.210;2023-04-22T04:39:52;99235.72;;;11.38;77.36
49585;BME280;35491;49.142;9.210;2023-04-22T04:40:58;99239.22;;;11.38;76.92
49585;BME280;35491;49.142;9.210;2023-04-22T04:42:02;99232.00;;;11.39;76.79
49585;BME280;35491;49.142;9.210;2023-04-22T04:43:21;99225.16;;;11.36;76.82
49585;BME280;35491;49.142;9.210;2023-04-22T04:44:26;99226.00;;;11.37;76.94
49585;BME280;35491;49.142;9.210;2023-04-22T04:45:27;99221.31;;;11.39;76.83
49585;BME280;35491;49.142;9.210;2023-04-22T04:46:32;99234.03;;;11.37;76.51
49585;BME280;35491;49.142;9.210;2023-04-22T04:47:36;99229.84;;;11.34;76.93
49585;BME280;35491;49.142;9.210;2023-04-22T04:48:40;99226.16;;;11.35;76.69
49585;BME280;35491;49.142;9.210;2023-04-22T04:49:42;99232.19;;;11.37;76.99
49585;BME280;35491;49.142;9.210;2023-04-22T04:50:48;99229.19;;;11.41;76.67
49585;BME280;35491;49.142;9.210;2023-04-22T04:51:49;99223.66;;;11.42;76.71
49585;BME280;35491;49.142;9.210;2023-04-22T04:53:01;99230.50;;;11.45;76.45
49585;BME280;35491;49.142;9.210;2023-04-22T04:54:09;99236.22;;;11.42;76.83
49585;BME280;35491;49.142;9.210;2023-04-22T04:55:30;99228.81;;;11.44;76.50
49585;BME280;35491;49.142;9.210;2023-04-22T04:56:46;99236.84;;;11.44;76.50
49585;BME280;35491;49.142;9.210;2023-04-22T04:57:47;99229.50;;;11.46;76.58
49585;BME280;35491;49.142;9.210;2023-04-22T04:58:51;99228.50;;;11.47;76.34
49585;BME280;35491;49.142;9.210;2023-04-22T04:59:52;99224.81;;;11.48;76.35
49585;BME280;35491;49.142;9.210;2023-04-22T05:01:09;99234.34;;;11.50;75.98
49585;BME280;35491;49.142;9.210;2023-04-22T05:02:13;99227.78;;;11.53;76.26
49585;BME280;35491;49.142;9.210;2023-04-22T05:03:17;99224.28;;;11.52;76.23
49585;BME280;35491;49.142;9.210;2023-04-22T05:04:21;99224.13;;;11.54;75.79
49585;BME280;35491;49.142;9.210;2023-04-22T05:05:22;99229.47;;;11.54;76.05
49585;BME280;35491;49.142;9.210;2023-04-22T05:06:25;99219.94;;;11.51;75.72
49585;BME280;35491;49.142;9.210;2023-04-22T05:07:27;99230.66;;;11.51;76.36
49585;BME280;35491;49.142;9.210;2023-04-22T05:08:31;99222.81;;;11.50;76.11
49585;BME280;35491;49.142;9.210;2023-04-22T05:09:32;99222.81;;;11.50;76.01
49585;BME280;35491;49.142;9.210;2023-04-22T05:10:37;99225.47;;;11.50;76.22
49585;BME280;35491;49.142;9.210;2023-04-22T05:11:38;99223.63;;;11.50;76.23
49585;BME280;35491;49.142;9.210;2023-04-22T05:12:43;99227.31;;;11.49;76.05
49585;BME280;35491;49.142;9.210;2023-04-22T05:13:46;99227.19;;;11.43;76.34
49585;BME280;35491;49.142;9.210;2023-04-22T05:14:50;99228.50;;;11.38;77.06
49585;BME280;35491;49.142;9.210;2023-04-22T05:15:51;99225.00;;;11.38;77.02
49585;BME280;35491;49.142;9.210;2023-04-22T05:16:55;99233.69;;;11.40;76.99
49585;BME280;35491;49.142;9.210;2023-04-22T05:17:56;99229.84;;;11.43;76.87
49585;BME280;35491;49.142;9.210;2023-04-22T05:19:02;99233.03;;;11.46;76.65
49585;BME280;35491;49.142;9.210;2023-04-22T05:20:04;99231.16;;;11.47;76.61
49585;BME280;35491;49.142;9.210;2023-04-22T05:21:08;99240.19;;;11.46;76.95
49585;BME280;35491;49.142;9.210;2023-04-22T05:22:09;99240.56;;;11.43;77.15
49585;BME280;35491;49.142;9.210;2023-04-22T05:23:13;99239.88;;;11.41;77.32
49585;BME280;35491;49.142;9.210;2023-04-22T05:24:14;99231.69;;;11.42;77.17
49585;BME280;35491;49.142;9.210;2023-04-22T05:25:18;99240.56;;;11.43;77.03
49585;BME280;35491;49.142;9.210;2023-04-22T05:26:19;99233.69;;;11.40;76.78
49585;BME280;35491;49.142;9.210;2023-04-22T05:27:23;99235.34;;;11.41;76.55
49585;BME280;35491;49.142;9.210;2023-04-22T05:28:24;99235.53;;;11.39;76.89
49585;BME280;35491;49.142;9.210;2023-04-22T05:29:28;99236.22;;;11.42;76.72
49585;BME280;35491;49.142;9.210;2023-04-22T05:31:31;99231.84;;;11.41;76.85
49585;BME280;35491;49.142;9.210;2023-04-22T05:32:35;99224.50;;;11.43;76.63
49585;BME280;35491;49.142;9.210;2023-04-22T05:33:36;99237.88;;;11.43;76.40
49585;BME280;35491;49.142;9.210;2023-04-22T05:34:42;99227.81;;;11.45;76.97
49585;BME280;35491;49.142;9.210;2023-04-22T05:35:44;99230.34;;;11.46;76.65
49585;BME280;35491;49.142;9.210;2023-04-22T05:36:47;99221.31;;;11.47;76.70
49585;BME280;35491;49.142;9.210;2023-04-22T05:37:48;99221.13;;;11.49;76.67